Time;durP1;ratioP1;P1;durP2;ratioP2;P2;SDS_P1;SDS_P2;PMS_P1;PMS_P2;Temp;Humidity;BMP_temperature;BMP_pressure;BME280_temperature;BME280_humidity;BME280_pressure;Samples;Min_cycle;Max_cycle;Signal;HPM_P1;HPM_P2
2022/02/06 00:01:35;;;;;;;41.70;21.33;;;;;;;12.28;53.58;101568.41;4931909;29;20059;-81
2022/02/06 00:04:05;;;;;;;31.20;19.20;;;;;;;12.30;53.92;101566.16;4928034;29;21644;-78
2022/02/06 00:06:35;;;;;;;37.20;21.60;;;;;;;12.28;54.00;101574.84;4933670;29;20175;-82
2022/02/06 00:09:02;;;;;;;30.00;18.00;;;;;;;12.28;54.31;101571.22;4934233;29;20066;-81
2022/02/06 00:11:29;;;;;;;22.47;13.93;;;;;;;12.11;54.91;101571.34;4934728;29;20147;-75
2022/02/06 00:13:56;;;;;;;28.87;15.50;;;;;;;12.02;55.29;101570.97;4932792;29;20669;-76
2022/02/06 00:16:23;;;;;;;23.27;12.33;;;;;;;12.01;55.74;101577.69;4931264;28;20059;-76
2022/02/06 00:18:50;;;;;;;31.60;15.20;;;;;;;11.81;55.72;101544.72;4933404;29;20056;-80
2022/02/06 00:21:20;;;;;;;20.37;11.23;;;;;;;11.95;56.32;101573.13;4930034;29;20087;-85
2022/02/06 00:23:55;;;;;;;23.77;14.47;;;;;;;11.86;56.70;101560.72;4933150;29;20503;-77
2022/02/06 00:26:33;;;;;;;21.60;13.43;;;;;;;11.84;57.06;101568.56;4933961;29;20134;-75
2022/02/06 00:29:20;;;;;;;23.87;11.93;;;;;;;11.73;57.34;101567.59;4932342;29;20182;-74
2022/02/06 00:39:49;;;;;;;14.03;8.83;;;;;;;10.97;58.52;101478.03;4923287;29;20082;-79
2022/02/06 00:42:16;;;;;;;20.63;10.93;;;;;;;11.21;58.32;101525.28;4945467;28;20083;-77
2022/02/06 00:44:44;;;;;;;14.70;9.63;;;;;;;11.30;58.11;101544.16;4932433;29;20175;-77
2022/02/06 00:47:11;;;;;;;22.53;12.17;;;;;;;11.25;58.65;101549.69;4931306;29;20047;-71
2022/02/06 00:49:39;;;;;;;22.17;10.73;;;;;;;11.11;58.57;101524.09;4934164;29;20138;-72
2022/02/06 00:52:11;;;;;;;23.83;12.57;;;;;;;11.15;58.54;101542.03;4933636;29;20095;-77
2022/02/06 00:54:38;;;;;;;30.07;14.10;;;;;;;11.12;58.78;101542.53;4934156;29;20138;-77
2022/02/06 00:57:06;;;;;;;26.93;14.13;;;;;;;11.06;58.79;101546.38;4933781;29;20091;-75
2022/02/06 00:59:33;;;;;;;24.53;13.13;;;;;;;11.08;58.68;101546.97;4935076;29;20459;-78
2022/02/06 01:02:00;;;;;;;25.93;14.20;;;;;;;11.06;58.58;101549.16;4934720;29;20545;-77
2022/02/06 01:04:29;;;;;;;26.53;14.33;;;;;;;10.85;58.31;101527.66;4935115;29;20472;-77
2022/02/06 01:06:56;;;;;;;20.93;13.63;;;;;;;10.82;58.28;101530.94;4936310;29;20479;-80
2022/02/06 01:09:22;;;;;;;25.53;15.37;;;;;;;10.81;58.25;101534.84;4935569;29;20500;-79
2022/02/06 01:11:51;;;;;;;27.77;16.93;;;;;;;10.86;58.00;101532.13;4928575;29;20062;-79
2022/02/06 01:14:36;;;;;;;32.10;18.53;;;;;;;11.34;57.02;101572.44;4933435;29;20060;-81
2022/02/06 01:19:53;;;;;;;31.90;19.57;;;;;;;11.45;56.14;101559.41;4938856;29;20055;-75
2022/02/06 01:22:23;;;;;;;32.20;18.10;;;;;;;11.45;55.89;101554.66;4934159;29;20052;-78
2022/02/06 01:25:28;;;;;;;28.97;16.20;;;;;;;11.34;56.21;101530.47;4932662;29;20087;-79
2022/02/06 01:27:52;;;;;;;27.87;14.63;;;;;;;11.32;56.48;101555.09;4931840;29;20072;-78
2022/02/06 01:33:13;;;;;;;25.67;13.00;;;;;;;11.11;57.10;101554.84;4948904;28;20047;-76
2022/02/06 01:35:58;;;;;;;18.30;11.63;;;;;;;10.87;57.02;101522.63;4938727;29;20082;-76
2022/02/06 01:38:36;;;;;;;21.03;10.67;;;;;;;11.05;57.09;101557.81;4936134;29;20483;-77
2022/02/06 01:41:17;;;;;;;15.83;10.23;;;;;;;10.96;57.17;101548.19;4933372;29;20079;-76
2022/02/06 01:43:53;;;;;;;25.47;13.43;;;;;;;10.86;57.08;101555.31;4933137;29;20044;-76
2022/02/06 02:05:46;;;;;;;9.13;5.37;;;;;;;10.98;54.63;101558.00;4939011;29;20136;-78
2022/02/06 02:17:11;;;;;;;9.17;3.97;;;;;;;11.34;51.81;101564.03;4935119;29;20461;-75
2022/02/06 02:48:01;;;;;;;4.00;2.17;;;;;;;11.50;47.29;101565.91;4928754;29;20134;-74
2022/02/06 02:50:30;;;;;;;4.20;2.20;;;;;;;11.21;46.96;101542.06;4936666;29;20079;-74
2022/02/06 03:00:58;;;;;;;2.83;1.63;;;;;;;11.32;46.39;101535.50;4935169;29;20056;-78
2022/02/06 03:03:28;;;;;;;5.20;2.03;;;;;;;11.46;46.52;101563.91;4936113;29;20079;-77
2022/02/06 03:05:58;;;;;;;7.50;2.63;;;;;;;11.41;46.08;101542.31;4948697;28;20055;-75
2022/02/06 03:08:25;;;;;;;2.97;1.70;;;;;;;11.64;46.07;101560.75;4932242;29;20135;-73
2022/02/06 03:10:55;;;;;;;3.40;1.87;;;;;;;11.68;46.04;101563.88;4933455;29;20139;-73
2022/02/06 03:13:25;;;;;;;3.88;2.00;;;;;;;11.59;45.84;101541.97;4933709;29;20072;-76
2022/02/06 03:18:27;;;;;;;1.52;1.33;;;;;;;11.55;45.80;101507.22;4936382;29;20145;-76
2022/02/06 03:20:54;;;;;;;9.50;2.70;;;;;;;11.76;45.90;101555.00;4930959;29;20094;-75
2022/02/06 03:23:22;;;;;;;4.40;2.07;;;;;;;11.62;45.79;101549.84;4932521;29;20134;-75
2022/02/06 03:25:54;;;;;;;3.87;1.90;;;;;;;11.27;45.60;101502.72;4935003;29;20082;-76
2022/02/06 03:28:25;;;;;;;3.33;1.70;;;;;;;11.69;45.53;101566.44;4933979;29;20579;-76
2022/02/06 03:30:52;;;;;;;6.57;2.17;;;;;;;11.68;45.60;101569.47;4961837;28;20128;-74
2022/02/06 03:33:19;;;;;;;8.43;2.43;;;;;;;11.74;45.19;101562.81;4932114;29;20047;-76
2022/02/06 03:35:47;;;;;;;4.20;2.10;;;;;;;11.74;45.43;101569.25;4936089;29;20090;-75
2022/02/06 03:38:14;;;;;;;3.00;2.03;;;;;;;11.61;45.56;101572.47;4932710;29;20066;-74
2022/02/06 03:40:53;;;;;;;2.97;1.50;;;;;;;11.41;45.43;101533.09;4933690;29;20087;-74
2022/02/06 03:43:52;;;;;;;2.53;1.73;;;;;;;11.65;45.35;101559.63;4936516;29;20131;-74
2022/02/06 03:46:16;;;;;;;3.20;1.60;;;;;;;11.32;45.30;101524.31;4934837;29;20056;-78
2022/02/06 03:48:51;;;;;;;3.23;1.77;;;;;;;11.56;45.06;101564.03;4935362;29;20099;-74
2022/02/06 03:51:21;;;;;;;4.10;1.97;;;;;;;11.33;45.00;101537.19;4933630;29;20079;-73
2022/02/06 03:53:51;;;;;;;1.50;0.93;;;;;;;11.37;44.87;101560.72;4927259;29;20507;-74
2022/02/06 03:56:20;;;;;;;5.63;1.90;;;;;;;11.27;44.80;101567.03;4935143;29;20063;-74
2022/02/06 03:58:47;;;;;;;2.67;1.73;;;;;;;11.27;44.85;101572.63;4934159;29;20134;-73
2022/02/06 04:01:16;;;;;;;0.70;0.57;;;;;;;11.20;44.50;101571.97;4934713;29;20130;-76
2022/02/06 04:03:43;;;;;;;1.30;1.00;;;;;;;11.03;44.34;101563.66;4934665;29;20047;-75
2022/02/06 04:06:10;;;;;;;0.50;0.50;;;;;;;11.06;44.23;101560.34;4951833;28;20042;-73
2022/02/06 04:08:39;;;;;;;2.87;1.33;;;;;;;10.94;44.17;101565.22;4958996;28;20059;-74
2022/02/06 04:11:10;;;;;;;1.03;0.87;;;;;;;10.76;44.07;101537.56;4936367;29;20536;-73
2022/02/06 04:13:52;;;;;;;1.90;0.93;;;;;;;10.71;43.65;101568.25;4933820;29;20126;-73
2022/02/06 04:16:26;;;;;;;1.17;0.87;;;;;;;10.94;43.37;101578.31;4930781;29;20098;-72
2022/02/06 04:19:06;;;;;;;1.47;0.90;;;;;;;10.73;43.15;101579.97;4932797;29;20185;-72
2022/02/06 04:21:33;;;;;;;0.70;0.70;;;;;;;10.73;43.19;101569.66;4935017;29;20095;-79
2022/02/06 04:24:03;;;;;;;0.50;0.50;;;;;;;10.44;42.88;101519.53;4933616;29;20066;-78
2022/02/06 04:26:32;;;;;;;1.70;0.97;;;;;;;10.66;42.82;101583.78;4928765;29;20058;-79
2022/02/06 04:28:59;;;;;;;1.20;0.80;;;;;;;10.75;42.57;101580.59;4934445;29;20481;-79
2022/02/06 04:31:26;;;;;;;1.77;1.20;;;;;;;10.74;42.68;101581.69;4934378;29;20132;-80
2022/02/06 04:33:53;;;;;;;1.20;0.90;;;;;;;10.70;42.30;101583.28;4923186;29;20480;-80
2022/02/06 04:36:22;;;;;;;0.80;0.60;;;;;;;10.80;42.21;101589.03;4934433;29;20056;-80
2022/02/06 04:39:02;;;;;;;2.40;0.87;;;;;;;10.97;42.19;101589.84;4931361;29;20130;-81
2022/02/06 04:41:45;;;;;;;2.22;1.15;;;;;;;11.08;41.82;101588.06;4960683;28;20131;-81
2022/02/06 05:27:46;;;;;;;3.70;1.23;;;;;;;11.24;40.56;101595.50;4932695;29;20134;-78
2022/02/06 05:30:16;;;;;;;1.33;1.00;;;;;;;11.20;40.74;101587.91;4938931;28;20083;-77
2022/02/06 05:35:23;;;;;;;2.50;1.10;;;;;;;11.12;40.30;101594.81;4936804;29;20052;-74
2022/02/06 05:37:50;;;;;;;1.37;0.90;;;;;;;11.03;40.62;101601.94;4935524;29;20083;-76
2022/02/06 05:40:17;;;;;;;1.40;1.00;;;;;;;10.99;40.70;101576.47;4934710;29;20134;-77
2022/02/06 05:42:44;;;;;;;3.27;1.07;;;;;;;11.19;40.67;101603.00;4931528;29;20084;-77
2022/02/06 05:45:18;;;;;;;2.87;1.40;;;;;;;11.30;40.67;101597.28;4934713;29;20123;-78
2022/02/06 05:47:46;;;;;;;2.00;1.27;;;;;;;11.05;40.86;101585.78;4936105;29;20094;-77
2022/02/06 05:50:16;;;;;;;2.33;1.10;;;;;;;11.15;40.98;101603.53;4936929;29;20091;-80
2022/02/06 05:52:45;;;;;;;3.23;1.43;;;;;;;11.27;40.69;101608.13;4937863;29;20055;-79
2022/02/06 05:55:13;;;;;;;2.43;1.67;;;;;;;11.23;40.87;101602.22;4968572;28;20513;-80
2022/02/06 05:57:43;;;;;;;2.00;1.43;;;;;;;11.04;41.08;101573.75;4938587;29;20134;-80
2022/02/06 06:00:13;;;;;;;3.25;1.20;;;;;;;11.26;41.00;101598.06;4936528;29;20090;-80
2022/02/06 06:02:42;;;;;;;3.17;1.40;;;;;;;11.14;41.27;101601.84;4936790;29;20055;-80
2022/02/06 06:05:09;;;;;;;1.63;0.97;;;;;;;10.95;41.26;101582.84;4936173;29;20414;-81
2022/02/06 06:07:41;;;;;;;2.63;0.97;;;;;;;10.96;41.73;101604.91;4938163;29;20478;-79
2022/02/06 06:10:10;;;;;;;1.87;1.17;;;;;;;10.88;41.78;101603.41;4938526;29;20130;-77
2022/02/06 06:12:38;;;;;;;2.03;1.13;;;;;;;10.91;41.64;101607.66;4928189;29;20107;-78
2022/02/06 06:15:06;;;;;;;3.00;1.33;;;;;;;11.02;41.49;101601.09;4933861;29;20216;-81
2022/02/06 06:17:45;;;;;;;3.50;1.77;;;;;;;10.84;41.57;101576.25;4940288;29;20075;-85
2022/02/06 06:20:16;;;;;;;4.50;1.63;;;;;;;10.93;41.97;101611.03;4939559;29;20462;-82
2022/02/06 06:22:43;;;;;;;1.53;1.20;;;;;;;10.90;41.98;101605.94;4941256;29;20063;-80
2022/02/06 06:25:11;;;;;;;4.43;1.43;;;;;;;11.02;41.92;101619.81;4951432;29;20415;-81
2022/02/06 06:27:38;;;;;;;2.33;1.50;;;;;;;11.05;41.87;101628.53;4958311;28;20032;-79
2022/02/06 06:30:05;;;;;;;4.07;1.80;;;;;;;11.06;41.88;101633.03;4961419;28;20043;-79
2022/02/06 06:32:32;;;;;;;2.37;1.73;;;;;;;10.86;42.10;101615.94;4952678;29;20553;-74
2022/02/06 06:35:02;;;;;;;3.00;1.70;;;;;;;10.86;42.27;101629.91;4958430;29;20051;-76
2022/02/06 06:37:31;;;;;;;3.45;1.90;;;;;;;10.97;42.07;101640.16;4959569;29;20156;-74
2022/02/06 06:39:58;;;;;;;4.17;2.17;;;;;;;10.79;42.30;101627.31;4959259;29;20032;-80
2022/02/06 06:42:24;;;;;;;4.17;2.13;;;;;;;10.87;42.27;101629.69;4961550;29;20051;-80
2022/02/06 06:44:52;;;;;;;2.17;1.60;;;;;;;10.98;42.06;101650.25;4985271;28;20068;-79
2022/02/06 06:47:18;;;;;;;9.03;1.90;;;;;;;10.79;42.17;101626.47;4950506;29;20044;-79
2022/02/06 06:49:45;;;;;;;3.63;1.63;;;;;;;10.57;42.12;101606.84;4957849;29;20062;-80
2022/02/06 06:52:12;;;;;;;2.70;1.80;;;;;;;10.90;42.38;101665.47;4954074;29;20139;-81
2022/02/06 06:54:44;;;;;;;3.10;1.70;;;;;;;10.91;42.31;101669.97;4942463;29;20058;-79
2022/02/06 07:05:04;;;;;;;3.40;1.90;;;;;;;10.81;42.30;101649.41;4927572;29;20159;-81
2022/02/06 07:07:32;;;;;;;2.63;1.80;;;;;;;10.67;42.52;101624.63;4937753;29;20134;-78
2022/02/06 07:10:01;;;;;;;1.37;0.70;;;;;;;10.58;42.71;101625.31;4935497;29;20142;-77
2022/02/06 07:12:29;;;;;;;2.90;1.55;;;;;;;10.35;42.95;101631.88;4935633;29;20058;-72
2022/02/06 07:15:01;;;;;;;0.30;0.30;;;;;;;10.16;43.01;101620.09;4933610;29;20056;-72
2022/02/06 07:17:27;;;;;;;1.88;1.17;;;;;;;10.00;43.23;101601.38;4933923;29;20555;-73
2022/02/06 07:19:54;;;;;;;2.00;1.03;;;;;;;9.97;43.27;101625.88;4965305;28;20138;-74
2022/02/06 07:22:21;;;;;;;1.07;0.97;;;;;;;9.98;43.51;101649.03;4964110;28;20518;-81
2022/02/06 07:24:48;;;;;;;2.53;1.77;;;;;;;10.11;43.49;101657.13;4936711;29;20075;-80
2022/02/06 07:30:06;;;;;;;4.70;1.27;;;;;;;10.12;43.26;101619.75;4925507;29;20088;-79
2022/02/06 07:32:38;;;;;;;3.47;1.10;;;;;;;10.17;42.87;101625.41;4933186;29;20130;-73
2022/02/06 07:35:09;;;;;;;1.17;1.00;;;;;;;10.06;43.16;101631.06;4934751;29;20043;-79
2022/02/06 07:37:54;;;;;;;4.10;1.10;;;;;;;10.08;43.07;101638.06;4933300;29;20582;-67
2022/02/06 07:40:33;;;;;;;5.10;1.70;;;;;;;10.14;42.85;101664.16;4931167;29;20138;-71
2022/02/06 07:43:00;;;;;;;2.73;1.40;;;;;;;10.27;42.94;101674.19;4933549;29;20082;-71
2022/02/06 07:45:27;;;;;;;5.73;1.73;;;;;;;10.22;42.63;101649.78;4946961;28;20151;-72
2022/02/06 07:47:54;;;;;;;3.57;1.67;;;;;;;10.33;42.87;101656.44;4926947;29;20086;-71
2022/02/06 07:50:23;;;;;;;4.93;2.03;;;;;;;10.57;42.49;101687.84;4933785;29;20074;-72
2022/02/06 07:52:50;;;;;;;3.30;1.83;;;;;;;10.60;42.54;101688.19;4932965;29;20086;-78
2022/02/06 07:55:18;;;;;;;2.73;1.87;;;;;;;10.62;42.44;101688.78;4932071;29;20075;-70
2022/02/06 07:57:45;;;;;;;4.30;1.70;;;;;;;10.46;42.76;101688.75;4928346;29;20078;-70
2022/02/06 08:00:15;;;;;;;2.95;1.63;;;;;;;10.61;42.63;101683.44;4931112;29;20047;-71
2022/02/06 08:02:43;;;;;;;4.77;2.23;;;;;;;10.57;42.71;101691.50;4933118;29;20134;-72
2022/02/06 08:05:10;;;;;;;3.63;2.30;;;;;;;10.79;42.72;101713.09;4933291;29;20443;-72
2022/02/06 08:07:39;;;;;;;3.13;1.77;;;;;;;10.66;42.69;101667.59;4928340;29;20052;-70
2022/02/06 08:10:07;;;;;;;3.33;1.90;;;;;;;11.37;42.37;101717.34;4929884;29;20135;-70
2022/02/06 08:12:44;;;;;;;4.57;2.30;;;;;;;11.86;41.96;101720.25;4926593;29;20056;-70
2022/02/06 08:15:11;;;;;;;3.07;2.10;;;;;;;12.36;41.40;101727.56;4927792;29;20099;-70
2022/02/06 08:17:39;;;;;;;3.63;1.93;;;;;;;12.72;40.96;101714.78;4926043;29;20067;-70
2022/02/06 08:20:14;;;;;;;4.05;1.60;;;;;;;12.93;40.41;101695.31;4931411;29;20043;-70
2022/02/06 08:22:42;;;;;;;3.57;2.03;;;;;;;13.52;39.92;101726.88;4925758;28;20048;-70
2022/02/06 08:25:11;;;;;;;3.47;1.90;;;;;;;13.95;39.50;101732.44;4924501;29;20126;-70
2022/02/06 08:27:39;;;;;;;;;;;;;;;14.32;40.01;101732.25;4924510;29;20055;-70
2022/02/06 08:30:07;;;;;;;3.00;1.60;;;;;;;14.54;38.88;101709.56;4929362;29;19926;-70
2022/02/06 08:32:37;;;;;;;4.07;1.93;;;;;;;15.01;38.47;101730.09;4934053;29;20078;-70
2022/02/06 08:35:06;;;;;;;3.03;1.40;;;;;;;15.35;38.09;101716.28;4932041;29;20127;-70
2022/02/06 08:37:36;;;;;;;3.10;1.50;;;;;;;15.32;36.93;101709.28;4927904;29;20054;-71
2022/02/06 08:40:12;;;;;;;2.38;1.20;;;;;;;15.53;36.32;101734.56;4930998;29;20298;-70
2022/02/06 08:42:40;;;;;;;4.03;1.70;;;;;;;15.34;35.50;101706.16;4929689;29;20205;-71
2022/02/06 08:45:11;;;;;;;2.53;1.37;;;;;;;15.15;36.07;101692.69;4931899;29;20051;-71
2022/02/06 08:47:39;;;;;;;6.60;3.20;;;;;;;15.29;35.87;101711.81;4957766;28;20056;-70
2022/02/06 08:50:06;;;;;;;3.60;1.47;;;;;;;15.46;36.17;101743.31;4930113;29;20591;-71
2022/02/06 08:52:33;;;;;;;4.27;1.50;;;;;;;15.32;35.85;101723.34;4926242;29;20099;-71
2022/02/06 08:55:01;;;;;;;1.73;1.17;;;;;;;15.12;35.55;101727.03;4929585;29;20464;-72
2022/02/06 08:57:28;;;;;;;3.27;1.60;;;;;;;15.04;35.47;101740.78;4931805;29;20055;-70
2022/02/06 08:59:56;;;;;;;2.07;1.53;;;;;;;14.81;34.71;101731.81;4928277;29;20565;-70
2022/02/06 09:02:24;;;;;;;4.23;1.77;;;;;;;14.69;34.47;101726.44;4929523;29;20572;-70
2022/02/06 09:04:54;;;;;;;5.30;1.70;;;;;;;14.73;34.81;101732.34;4927097;29;20533;-71
2022/02/06 09:07:22;;;;;;;2.40;1.40;;;;;;;14.62;34.44;101736.28;4932389;29;20048;-70
2022/02/06 09:09:55;;;;;;;2.40;1.80;;;;;;;14.39;34.24;101701.94;4932270;29;20582;-71
2022/02/06 09:12:22;;;;;;;5.20;1.60;;;;;;;14.66;34.17;101726.16;4934494;29;20086;-72
2022/02/06 09:14:50;;;;;;;1.73;1.17;;;;;;;15.02;34.27;101727.03;4937105;29;20547;-70
2022/02/06 09:17:17;;;;;;;2.13;1.47;;;;;;;14.85;33.71;101738.56;4937105;29;20138;-73
2022/02/06 09:19:44;;;;;;;3.87;1.60;;;;;;;14.29;33.44;101681.38;4933212;29;20154;-69
2022/02/06 09:22:13;;;;;;;2.97;0.83;;;;;;;14.49;34.00;101725.53;4955499;29;20034;-70
2022/02/06 09:24:41;;;;;;;1.97;1.37;;;;;;;14.44;33.83;101744.09;4955969;29;20466;-70
2022/02/06 09:27:08;;;;;;;3.90;1.47;;;;;;;14.38;34.16;101714.28;4936851;29;20134;-71
2022/02/06 09:29:40;;;;;;;2.00;1.73;;;;;;;14.56;34.09;101751.44;4937816;29;20142;-70
2022/02/06 09:37:21;;;;;;;4.00;1.60;;;;;;;14.52;33.27;101745.53;4929181;29;20502;-69
2022/02/06 09:39:48;;;;;;;2.53;1.80;;;;;;;14.95;32.78;101751.78;4930667;29;20075;-67
2022/02/06 09:42:18;;;;;;;2.80;1.17;;;;;;;14.95;32.53;101756.56;4937562;29;20055;-70
2022/02/06 09:44:50;;;;;;;3.83;1.90;;;;;;;15.21;32.66;101763.03;4938295;29;20451;-70
2022/02/06 09:47:26;;;;;;;2.73;1.80;;;;;;;15.65;32.67;101766.88;4927109;29;20047;-69
2022/02/06 09:49:53;;;;;;;3.00;2.33;;;;;;;15.72;32.27;101762.97;4924622;29;20079;-69
2022/02/06 09:52:25;;;;;;;2.53;1.67;;;;;;;16.37;32.17;101774.25;4938412;29;20087;-69
2022/02/06 09:54:54;;;;;;;2.83;1.90;;;;;;;16.71;31.21;101777.16;4937186;29;20130;-69
2022/02/06 09:57:30;;;;;;;3.90;2.30;;;;;;;17.45;30.85;101781.69;4934619;29;20400;-68
2022/02/06 09:59:58;;;;;;;3.35;2.08;;;;;;;18.33;30.35;101765.44;4936536;29;20086;-68
2022/02/06 10:02:30;;;;;;;3.30;2.40;;;;;;;18.46;28.57;101773.19;4933693;29;20107;-70
2022/02/06 10:04:58;;;;;;;3.28;2.20;;;;;;;18.32;28.72;101786.34;4931332;29;20090;-70
2022/02/06 10:07:36;;;;;;;4.50;2.30;;;;;;;18.42;28.49;101771.25;4937722;29;20051;-69
2022/02/06 10:10:07;;;;;;;4.20;2.08;;;;;;;18.64;27.76;101781.97;4934738;29;20468;-70
2022/02/06 10:12:40;;;;;;;3.88;2.58;;;;;;;18.45;27.48;101779.13;4932079;29;20131;-70
2022/02/06 10:15:13;;;;;;;2.20;1.92;;;;;;;18.33;27.67;101787.22;4935027;29;20134;-70
2022/02/06 10:17:41;;;;;;;3.53;1.40;;;;;;;18.10;27.77;101755.84;4936908;29;20078;-70
2022/02/06 10:20:20;;;;;;;9.68;2.70;;;;;;;18.70;28.05;101780.75;4930229;29;20062;-70
2022/02/06 10:23:00;;;;;;;4.68;2.30;;;;;;;19.42;28.04;101750.13;4933873;29;20086;-70
2022/02/06 10:25:29;;;;;;;3.53;2.17;;;;;;;20.38;27.32;101782.56;4935972;29;20134;-70
2022/02/06 10:30:42;;;;;;;4.45;2.33;;;;;;;21.06;26.87;101784.41;4936082;29;20393;-69
2022/02/06 10:33:12;;;;;;;3.05;1.95;;;;;;;21.26;26.04;101785.03;4947648;28;20058;-70
2022/02/06 10:35:44;;;;;;;3.85;2.38;;;;;;;21.09;25.91;101790.56;4934584;29;20142;-69
2022/02/06 10:38:15;;;;;;;4.28;2.55;;;;;;;21.45;26.12;101802.75;4935133;29;20134;-70
2022/02/06 10:40:43;;;;;;;2.45;2.10;;;;;;;21.85;25.78;101805.66;4934213;29;20134;-71
2022/02/06 10:43:11;;;;;;;3.50;2.05;;;;;;;22.21;25.28;101776.22;4935362;29;20054;-70
2022/02/06 10:45:41;;;;;;;3.75;2.53;;;;;;;22.77;25.69;101802.97;4935324;29;20134;-71
2022/02/06 10:48:20;;;;;;;4.22;2.20;;;;;;;22.52;24.66;101810.28;4932810;29;20047;-70
2022/02/06 10:50:47;;;;;;;3.75;2.55;;;;;;;22.88;24.98;101812.03;4936669;29;20107;-70
2022/02/06 10:53:16;;;;;;;3.72;2.70;;;;;;;23.15;25.02;101788.94;4934590;29;20451;-71
2022/02/06 10:56:01;;;;;;;5.00;2.67;;;;;;;23.67;25.21;101793.69;4937198;29;20051;-70
2022/02/06 10:58:33;;;;;;;2.83;2.20;;;;;;;23.42;24.04;101804.81;4935541;29;20476;-69
2022/02/06 11:01:22;;;;;;;3.13;2.45;;;;;;;23.41;24.44;101791.72;4934920;29;20151;-70
2022/02/06 11:03:52;;;;;;;4.10;3.42;;;;;;;23.81;24.30;101785.78;4933266;29;20047;-71
2022/02/06 11:06:42;;;;;;;8.82;3.05;;;;;;;24.36;23.98;101782.00;4932927;29;20488;-70
2022/02/06 11:09:30;;;;;;;3.30;2.38;;;;;;;24.39;23.46;101788.22;4933866;29;20154;-71
2022/02/06 11:12:20;;;;;;;4.68;2.33;;;;;;;23.24;21.50;101768.94;4935404;29;20586;-71
2022/02/06 11:14:50;;;;;;;4.13;2.60;;;;;;;22.44;21.90;101766.41;4931183;29;20539;-71
2022/02/06 11:17:19;;;;;;;3.28;2.08;;;;;;;22.22;22.50;101792.97;4934685;29;20154;-70
2022/02/06 11:20:08;;;;;;;1.70;1.60;;;;;;;21.77;22.96;101783.69;4932371;29;20111;-71
2022/02/06 11:22:36;;;;;;;7.75;2.72;;;;;;;21.84;23.07;101786.91;4930554;29;20138;-70
2022/02/06 11:25:06;;;;;;;3.50;2.15;;;;;;;22.51;23.22;101773.63;4936288;29;20430;-71
2022/02/06 11:27:34;;;;;;;5.13;2.33;;;;;;;23.00;22.89;101771.50;4935406;29;20499;-71
2022/02/06 11:30:01;;;;;;;4.53;2.95;;;;;;;23.12;22.34;101803.00;4935772;29;20135;-71
2022/02/06 11:32:28;;;;;;;2.38;2.03;;;;;;;23.47;22.15;101802.97;4933750;29;20138;-72
2022/02/06 11:34:57;;;;;;;4.03;2.13;;;;;;;23.61;21.74;101792.19;4933742;29;20079;-70
2022/02/06 11:43:52;;;;;;;5.35;1.92;;;;;;;23.09;21.81;101786.59;4929862;29;20163;-69
2022/02/06 11:46:28;;;;;;;4.40;2.10;;;;;;;23.13;22.08;101781.88;4931150;29;20054;-70
2022/02/06 11:49:05;;;;;;;2.70;2.38;;;;;;;23.25;21.26;101769.78;4935847;29;20147;-71
2022/02/06 11:51:32;;;;;;;2.33;2.03;;;;;;;23.66;21.71;101783.47;4933164;29;20526;-70
2022/02/06 11:54:29;;;;;;;3.72;2.22;;;;;;;23.16;20.93;101758.41;4927082;29;20138;-70
2022/02/06 12:00:02;;;;;;;3.20;2.58;;;;;;;24.51;21.09;101762.63;4959567;29;20055;-71
2022/02/06 12:02:36;;;;;;;3.28;2.63;;;;;;;24.82;20.20;101754.50;4933093;29;20079;-70
2022/02/06 12:05:13;;;;;;;3.50;2.72;;;;;;;25.00;19.75;101748.66;4930098;29;20134;-71
2022/02/06 12:07:52;;;;;;;2.78;2.30;;;;;;;25.05;19.29;101766.41;4928371;29;20602;-70
2022/02/06 12:10:42;;;;;;;3.28;2.42;;;;;;;25.17;18.95;101771.38;4934410;29;20526;-70
2022/02/06 12:13:15;;;;;;;;;;;;;;;25.59;19.34;101762.69;4934677;29;20459;-70
2022/02/06 12:15:53;;;;;;;2.78;2.45;;;;;;;25.63;19.38;101751.38;4934175;29;20360;-70
2022/02/06 12:18:27;;;;;;;5.97;3.53;;;;;;;26.29;19.20;101744.63;4929947;29;20166;-71
2022/02/06 12:21:08;;;;;;;3.58;2.78;;;;;;;27.29;18.74;101730.56;4935774;29;20056;-71
2022/02/06 12:23:40;;;;;;;6.18;3.65;;;;;;;28.15;18.30;101732.88;4934411;29;20083;-70
2022/02/06 12:26:32;;;;;;;8.90;3.33;;;;;;;28.92;18.32;101735.06;4933363;29;20108;-70
2022/02/06 12:29:10;;;;;;;8.18;3.20;;;;;;;29.45;18.00;101733.31;4934993;29;20054;-70
2022/02/06 12:31:57;;;;;;;4.72;3.25;;;;;;;30.10;17.88;101734.50;4930092;29;20491;-71
2022/02/06 12:37:28;;;;;;;4.30;2.97;;;;;;;30.98;17.47;101737.09;4926535;29;20087;-72
2022/02/06 12:39:57;;;;;;;3.83;3.17;;;;;;;31.32;16.96;101726.41;4928834;29;20495;-71
2022/02/06 12:42:29;;;;;;;4.65;3.10;;;;;;;31.55;16.91;101731.97;4933363;29;20423;-71
2022/02/06 12:44:58;;;;;;;3.17;2.72;;;;;;;31.83;16.46;101721.94;4933018;29;20468;-71
2022/02/06 12:47:27;;;;;;;3.10;2.80;;;;;;;32.20;16.49;101707.41;4926027;29;20079;-70
2022/02/06 12:49:54;;;;;;;3.72;2.85;;;;;;;32.32;16.12;101709.16;4931487;29;20062;-71
2022/02/06 12:52:22;;;;;;;3.78;3.17;;;;;;;32.15;16.17;101709.84;4932095;29;20134;-70
2022/02/06 12:54:49;;;;;;;5.25;4.00;;;;;;;32.08;16.14;101702.78;4932882;29;20138;-70
2022/02/06 12:57:19;;;;;;;5.00;3.00;;;;;;;31.99;16.04;101690.75;4933651;29;20090;-71
2022/02/06 12:59:47;;;;;;;3.90;3.17;;;;;;;32.16;16.09;101700.78;4933842;29;20495;-71
2022/02/06 13:02:20;;;;;;;4.63;3.17;;;;;;;32.44;15.92;101699.34;4929625;29;20052;-71
2022/02/06 13:05:02;;;;;;;4.05;2.90;;;;;;;32.89;15.56;101697.94;4932531;29;20051;-70
2022/02/06 13:07:30;;;;;;;5.57;2.75;;;;;;;33.14;14.84;101706.72;4934630;29;20476;-69
2022/02/06 13:10:08;;;;;;;3.22;2.92;;;;;;;32.87;15.22;101682.22;4929155;29;20099;-70
2022/02/06 13:12:50;;;;;;;3.80;2.30;;;;;;;32.95;15.20;101701.25;4930476;29;20582;-71
2022/02/06 13:15:52;;;;;;;4.40;3.05;;;;;;;32.84;15.14;101677.22;4928348;29;20570;-70
2022/02/06 13:24:11;;;;;;;3.72;3.03;;;;;;;33.51;14.55;101684.50;4933720;29;20134;-71
2022/02/06 13:32:01;;;;;;;4.40;3.05;;;;;;;33.39;14.33;101677.00;4929211;29;20070;-70
2022/02/06 13:37:30;;;;;;;4.05;2.30;;;;;;;31.27;15.27;101694.97;4924993;29;20058;-68
2022/02/06 13:40:06;;;;;;;4.07;2.33;;;;;;;29.32;16.69;101688.66;4931854;29;20142;-70
2022/02/06 13:42:34;;;;;;;4.63;2.58;;;;;;;27.79;17.61;101686.00;4928721;29;20587;-69
2022/02/06 13:45:12;;;;;;;3.67;2.80;;;;;;;26.51;18.52;101672.56;4937798;29;20499;-69
2022/02/06 13:47:43;;;;;;;4.97;2.80;;;;;;;25.24;19.15;101640.13;4938229;29;20440;-74
2022/02/06 13:50:13;;;;;;;5.20;2.35;;;;;;;24.63;19.40;101673.34;4936905;29;20134;-70
2022/02/06 13:52:45;;;;;;;6.88;3.50;;;;;;;23.91;20.22;101656.22;4928923;29;20051;-70
2022/02/06 13:55:14;;;;;;;5.70;2.58;;;;;;;23.31;20.88;101672.38;4928494;29;20451;-71
2022/02/06 13:57:40;;;;;;;5.50;2.60;;;;;;;22.73;21.03;101670.94;4932087;29;20055;-71
2022/02/06 14:00:10;;;;;;;5.65;2.70;;;;;;;22.29;21.60;101670.13;4925420;29;20044;-69
2022/02/06 14:02:37;;;;;;;8.05;2.58;;;;;;;21.82;21.60;101677.53;4927482;29;20139;-69
2022/02/06 14:05:15;;;;;;;4.97;3.20;;;;;;;21.46;22.07;101667.16;4929435;29;20150;-69
2022/02/06 14:08:10;;;;;;;5.35;2.47;;;;;;;20.70;23.15;101650.16;4929878;29;20740;-72
2022/02/06 14:10:47;;;;;;;6.68;2.95;;;;;;;20.56;23.44;101670.09;4929739;29;20087;-72
2022/02/06 14:13:25;;;;;;;5.05;2.90;;;;;;;20.29;23.83;101663.31;4929458;29;20159;-71
2022/02/06 14:16:04;;;;;;;6.63;3.10;;;;;;;20.11;23.92;101669.97;4937680;29;20053;-71
2022/02/06 14:18:33;;;;;;;7.18;2.88;;;;;;;19.87;24.35;101654.03;4935438;29;20114;-72
2022/02/06 14:21:01;;;;;;;6.40;3.28;;;;;;;19.52;24.75;101610.28;4928066;29;20130;-72
2022/02/06 14:23:27;;;;;;;14.27;8.32;;;;;;;19.74;24.77;101665.41;4931608;29;20079;-72
2022/02/06 14:26:10;;;;;;;6.50;3.45;;;;;;;19.35;25.38;101636.41;4933465;29;20072;-72
2022/02/06 14:28:47;;;;;;;9.55;4.22;;;;;;;19.06;25.84;101630.16;4958893;29;20039;-72
2022/02/06 14:31:35;;;;;;;5.25;3.45;;;;;;;19.06;25.83;101641.50;4953419;29;20054;-72
2022/02/06 14:34:19;;;;;;;6.05;2.90;;;;;;;18.98;26.07;101628.91;4986679;28;20032;-72
2022/02/06 14:37:06;;;;;;;9.45;3.15;;;;;;;18.99;26.33;101624.91;4959901;28;20028;-72